Time;durP1;ratioP1;P1;durP2;ratioP2;P2;SDS_P1;SDS_P2;PMS_P1;PMS_P2;Temp;Humidity;BMP_temperature;BMP_pressure;BME280_temperature;BME280_humidity;BME280_pressure;Samples;Min_cycle;Max_cycle;Signal;HPM_P1;HPM_P2
2023/09/16 00:00:08;;;;;;;6.90;5.97;;;;;;;;;;5053284;28;20469;-76
2023/09/16 00:02:35;;;;;;;8.03;6.00;;;;;;;;;;5053851;28;20461;-76
2023/09/16 00:05:04;;;;;;;8.20;6.63;;;;;;;;;;5053682;28;20480;-76
2023/09/16 00:07:33;;;;;;;9.07;7.00;;;;;;;;;;5053928;28;20437;-76
2023/09/16 00:10:00;;;;;;;7.03;6.33;;;;;;;;;;5054011;28;20883;-76
2023/09/16 00:12:28;;;;;;;6.70;5.73;;;;;;;;;;5053749;28;20522;-76
2023/09/16 00:14:55;;;;;;;7.83;6.60;;;;;;;;;;5053703;28;20434;-76
2023/09/16 00:17:22;;;;;;;8.93;5.87;;;;;;;;;;5053790;28;20441;-76
2023/09/16 00:19:50;;;;;;;6.10;5.03;;;;;;;;;;5053564;28;20433;-76
2023/09/16 00:22:21;;;;;;;7.43;6.27;;;;;;;;;;5053515;28;20476;-76
2023/09/16 00:24:50;;;;;;;8.23;6.03;;;;;;;;;;5053461;28;20457;-76
2023/09/16 00:27:18;;;;;;;8.83;7.37;;;;;;;;;;5053485;28;20441;-76
2023/09/16 00:29:45;;;;;;;11.70;8.90;;;;;;;;;;5053528;28;20433;-76
2023/09/16 00:32:12;;;;;;;9.10;7.10;;;;;;;;;;5053558;28;20437;-76
2023/09/16 00:34:40;;;;;;;9.00;6.60;;;;;;;;;;5053472;28;20438;-76
2023/09/16 00:37:07;;;;;;;6.60;5.50;;;;;;;;;;5055837;28;20941;-76
2023/09/16 00:39:35;;;;;;;7.17;5.77;;;;;;;;;;5073151;28;20440;-75
2023/09/16 00:42:04;;;;;;;7.50;5.70;;;;;;;;;;5073077;28;20567;-76
2023/09/16 00:44:32;;;;;;;6.77;5.40;;;;;;;;;;5073435;28;20437;-76
2023/09/16 00:46:59;;;;;;;7.77;6.97;;;;;;;;;;5073398;28;20788;-76
2023/09/16 00:49:30;;;;;;;9.17;7.33;;;;;;;;;;5069178;28;20777;-76
2023/09/16 00:51:57;;;;;;;10.57;8.20;;;;;;;;;;5052953;28;20434;-76
2023/09/16 00:54:26;;;;;;;13.63;8.10;;;;;;;;;;5053029;28;20499;-76
2023/09/16 00:56:59;;;;;;;8.93;6.20;;;;;;;;;;5053526;28;20441;-76
2023/09/16 00:59:29;;;;;;;10.20;7.73;;;;;;;;;;5055994;28;21044;-76
2023/09/16 01:01:56;;;;;;;8.10;6.50;;;;;;;;;;5056958;28;20451;-76
2023/09/16 01:04:24;;;;;;;7.63;5.60;;;;;;;;;;5068303;28;20930;-76
2023/09/16 01:06:53;;;;;;;6.97;5.90;;;;;;;;;;5077055;28;20432;-76
2023/09/16 01:09:21;;;;;;;7.07;6.37;;;;;;;;;;5077275;28;20541;-76
2023/09/16 01:11:48;;;;;;;8.30;6.37;;;;;;;;;;5077303;28;20535;-76
2023/09/16 01:14:16;;;;;;;8.70;7.77;;;;;;;;;;5076628;28;20436;-76
2023/09/16 01:16:48;;;;;;;8.83;6.90;;;;;;;;;;5077157;28;20486;-76
2023/09/16 01:19:18;;;;;;;8.83;6.87;;;;;;;;;;5077143;28;20761;-76
2023/09/16 01:21:45;;;;;;;7.67;6.87;;;;;;;;;;5077098;28;20494;-76
2023/09/16 01:24:17;;;;;;;10.20;6.30;;;;;;;;;;5076944;28;20472;-76
2023/09/16 01:26:45;;;;;;;7.93;6.33;;;;;;;;;;5076720;28;20469;-76
2023/09/16 01:29:13;;;;;;;6.93;6.23;;;;;;;;;;5076826;28;20432;-76
2023/09/16 01:31:41;;;;;;;7.17;6.43;;;;;;;;;;5076463;28;20836;-76
2023/09/16 01:34:11;;;;;;;8.30;7.20;;;;;;;;;;5076429;28;20441;-76
2023/09/16 01:36:39;;;;;;;9.83;8.27;;;;;;;;;;5076421;28;20485;-76
2023/09/16 01:39:08;;;;;;;9.90;7.73;;;;;;;;;;5076129;28;20857;-76
2023/09/16 01:41:38;;;;;;;12.90;8.00;;;;;;;;;;5076653;28;20490;-76
2023/09/16 01:44:07;;;;;;;10.57;6.53;;;;;;;;;;5076374;28;20464;-76
2023/09/16 01:46:34;;;;;;;8.53;7.30;;;;;;;;;;5076112;28;20489;-76
2023/09/16 01:49:02;;;;;;;10.17;8.13;;;;;;;;;;5076508;28;20432;-76
2023/09/16 01:51:29;;;;;;;12.50;7.50;;;;;;;;;;5075347;28;20436;-76
2023/09/16 01:53:56;;;;;;;9.23;7.07;;;;;;;;;;5076128;28;20435;-76
2023/09/16 01:56:24;;;;;;;10.07;7.10;;;;;;;;;;5076515;28;20439;-75
2023/09/16 01:58:51;;;;;;;11.07;7.57;;;;;;;;;;5076156;28;20436;-76
2023/09/16 02:01:20;;;;;;;9.20;7.37;;;;;;;;;;5074301;28;20440;-76
2023/09/16 02:03:47;;;;;;;7.90;5.70;;;;;;;;;;5075416;28;20548;-76
2023/09/16 02:06:14;;;;;;;7.80;6.80;;;;;;;;;;5076012;28;20494;-76
2023/09/16 02:08:42;;;;;;;8.10;6.17;;;;;;;;;;5075824;28;20825;-76
2023/09/16 02:11:09;;;;;;;7.47;6.20;;;;;;;;;;5075871;28;20486;-76
2023/09/16 02:13:36;;;;;;;8.20;6.37;;;;;;;;;;5076154;28;20844;-76
2023/09/16 02:16:04;;;;;;;7.57;6.10;;;;;;;;;;5075186;28;20636;-76
2023/09/16 02:18:33;;;;;;;6.40;5.70;;;;;;;;;;5075974;28;20429;-76
2023/09/16 02:21:00;;;;;;;6.60;6.00;;;;;;;;;;5075672;28;20516;-76
2023/09/16 02:23:27;;;;;;;6.10;5.33;;;;;;;;;;5075598;28;20471;-76
2023/09/16 02:25:53;;;;;;;5.73;5.13;;;;;;;;;;5075611;28;20440;-76
2023/09/16 02:28:23;;;;;;;7.17;6.47;;;;;;;;;;5075370;28;20487;-76
2023/09/16 02:30:50;;;;;;;8.47;6.57;;;;;;;;;;5071085;28;20445;-76
2023/09/16 02:33:17;;;;;;;8.13;6.47;;;;;;;;;;5054885;28;20543;-76
2023/09/16 02:35:46;;;;;;;8.83;6.53;;;;;;;;;;5055365;28;20947;-76
2023/09/16 02:38:14;;;;;;;7.77;6.67;;;;;;;;;;5055252;28;20442;-76
2023/09/16 02:40:41;;;;;;;12.47;6.80;;;;;;;;;;5055720;28;20542;-76
2023/09/16 02:43:09;;;;;;;8.27;6.20;;;;;;;;;;5059104;28;20475;-76
2023/09/16 02:45:42;;;;;;;7.00;6.30;;;;;;;;;;5074727;28;20518;-76
2023/09/16 02:48:10;;;;;;;8.70;7.90;;;;;;;;;;5074889;28;20553;-75
2023/09/16 02:50:38;;;;;;;6.90;6.20;;;;;;;;;;5075091;28;20441;-76
2023/09/16 02:53:07;;;;;;;8.97;8.07;;;;;;;;;;5056937;28;20940;-76
2023/09/16 02:55:36;;;;;;;8.80;7.60;;;;;;;;;;5071917;28;20482;-76
2023/09/16 02:58:03;;;;;;;8.83;6.77;;;;;;;;;;5074474;28;20953;-76
2023/09/16 03:00:35;;;;;;;7.10;6.40;;;;;;;;;;5074745;28;20830;-76
2023/09/16 03:03:03;;;;;;;7.60;6.83;;;;;;;;;;5075162;28;20857;-76
2023/09/16 03:05:31;;;;;;;7.33;5.70;;;;;;;;;;5075157;28;20432;-76
2023/09/16 03:07:58;;;;;;;6.60;5.90;;;;;;;;;;5074349;28;20505;-76
2023/09/16 03:10:27;;;;;;;6.23;5.10;;;;;;;;;;5074682;28;20927;-76
2023/09/16 03:12:54;;;;;;;6.60;5.97;;;;;;;;;;5075134;28;20476;-76
2023/09/16 03:15:22;;;;;;;6.20;5.47;;;;;;;;;;5074867;28;20429;-76
2023/09/16 03:17:49;;;;;;;6.33;5.40;;;;;;;;;;5074555;28;20918;-76
2023/09/16 03:20:18;;;;;;;9.90;5.83;;;;;;;;;;5057158;28;20437;-76
2023/09/16 03:22:45;;;;;;;6.70;5.50;;;;;;;;;;5054323;28;20494;-76
2023/09/16 03:25:12;;;;;;;6.43;5.73;;;;;;;;;;5054466;28;20432;-76
2023/09/16 03:27:41;;;;;;;5.97;5.37;;;;;;;;;;5054936;28;20440;-76
2023/09/16 03:30:09;;;;;;;7.20;6.00;;;;;;;;;;5054630;28;20433;-76
2023/09/16 03:32:39;;;;;;;6.87;5.50;;;;;;;;;;5054076;28;20442;-76
2023/09/16 03:35:07;;;;;;;5.83;5.27;;;;;;;;;;5054613;28;20425;-76
2023/09/16 03:37:34;;;;;;;7.20;5.47;;;;;;;;;;5054202;28;20429;-76
2023/09/16 03:40:03;;;;;;;6.40;5.63;;;;;;;;;;5054250;28;20541;-76
2023/09/16 03:42:33;;;;;;;6.50;5.20;;;;;;;;;;5054389;28;20432;-76
2023/09/16 03:45:02;;;;;;;5.77;4.63;;;;;;;;;;5053815;28;20433;-76
2023/09/16 03:47:29;;;;;;;6.17;5.57;;;;;;;;;;5053951;28;20465;-76
2023/09/16 03:49:57;;;;;;;6.27;5.43;;;;;;;;;;5063038;28;20436;-75
2023/09/16 03:52:25;;;;;;;6.67;5.70;;;;;;;;;;5073832;28;20432;-76
2023/09/16 03:54:52;;;;;;;8.30;5.20;;;;;;;;;;5074076;28;20493;-76
2023/09/16 03:57:19;;;;;;;7.00;5.37;;;;;;;;;;5074190;28;20753;-76
2023/09/16 03:59:46;;;;;;;6.60;5.70;;;;;;;;;;5073567;28;20548;-76
2023/09/16 04:02:15;;;;;;;5.80;4.80;;;;;;;;;;5073464;28;20448;-76
2023/09/16 04:04:42;;;;;;;5.60;4.67;;;;;;;;;;5073888;28;20500;-76
2023/09/16 04:07:10;;;;;;;5.80;4.77;;;;;;;;;;5073596;28;20444;-75
2023/09/16 04:09:37;;;;;;;9.43;6.00;;;;;;;;;;5073618;28;20509;-76
2023/09/16 04:12:05;;;;;;;5.33;4.83;;;;;;;;;;5073892;28;20441;-76
2023/09/16 04:14:32;;;;;;;5.70;5.10;;;;;;;;;;5073724;28;20464;-75
2023/09/16 04:16:59;;;;;;;6.10;4.80;;;;;;;;;;5073285;28;20490;-75
2023/09/16 04:19:28;;;;;;;6.67;5.13;;;;;;;;;;5073764;28;20439;-76
2023/09/16 04:21:55;;;;;;;5.93;4.23;;;;;;;;;;5073750;28;20432;-76
2023/09/16 04:24:22;;;;;;;7.20;5.67;;;;;;;;;;5073608;28;20472;-76
2023/09/16 04:26:49;;;;;;;6.80;4.70;;;;;;;;;;5073532;28;20497;-76
2023/09/16 04:29:17;;;;;;;5.83;4.47;;;;;;;;;;5073534;28;20448;-76
2023/09/16 04:31:44;;;;;;;5.60;4.83;;;;;;;;;;5071679;28;20509;-76
2023/09/16 04:34:11;;;;;;;4.60;3.93;;;;;;;;;;5073606;28;20494;-76
2023/09/16 04:36:40;;;;;;;6.87;4.00;;;;;;;;;;5072864;28;20441;-76
2023/09/16 04:39:08;;;;;;;4.93;4.10;;;;;;;;;;5072033;28;20497;-76
2023/09/16 04:41:36;;;;;;;4.50;4.10;;;;;;;;;;5072659;28;20486;-76
2023/09/16 04:44:03;;;;;;;5.50;4.20;;;;;;;;;;5072812;28;20467;-75
2023/09/16 04:46:31;;;;;;;8.30;5.20;;;;;;;;;;5073426;28;20460;-76
2023/09/16 04:48:58;;;;;;;5.70;4.43;;;;;;;;;;5073325;28;20443;-76
2023/09/16 04:51:25;;;;;;;5.50;4.97;;;;;;;;;;5072996;28;20890;-76
2023/09/16 04:53:56;;;;;;;5.00;4.30;;;;;;;;;;5072569;28;20512;-76
2023/09/16 04:56:24;;;;;;;7.33;4.47;;;;;;;;;;5073413;28;20423;-76
2023/09/16 04:58:51;;;;;;;5.97;4.93;;;;;;;;;;5063842;28;20430;-76
2023/09/16 05:01:19;;;;;;;4.97;4.00;;;;;;;;;;5052692;28;20434;-76
2023/09/16 05:03:46;;;;;;;6.27;3.90;;;;;;;;;;5053000;28;20929;-76
2023/09/16 05:06:13;;;;;;;4.83;4.33;;;;;;;;;;5052939;28;20793;-76
2023/09/16 05:08:42;;;;;;;4.60;3.87;;;;;;;;;;5052881;28;20439;-76
2023/09/16 05:11:10;;;;;;;7.97;3.93;;;;;;;;;;5052591;28;20941;-76
2023/09/16 05:13:38;;;;;;;5.87;5.27;;;;;;;;;;5052637;28;20513;-75
2023/09/16 05:16:07;;;;;;;6.80;4.60;;;;;;;;;;5052821;28;20439;-76
2023/09/16 05:18:35;;;;;;;6.80;5.10;;;;;;;;;;5052943;28;20430;-76
2023/09/16 05:21:02;;;;;;;6.07;4.20;;;;;;;;;;5052698;28;20840;-76
2023/09/16 05:23:30;;;;;;;6.03;5.33;;;;;;;;;;5052394;28;20529;-76
2023/09/16 05:26:05;;;;;;;5.93;4.80;;;;;;;;;;5069614;28;20437;-76
2023/09/16 05:28:34;;;;;;;5.37;4.87;;;;;;;;;;5072515;28;20470;-76
2023/09/16 05:31:03;;;;;;;6.17;5.57;;;;;;;;;;5072718;28;20462;-75
2023/09/16 05:33:31;;;;;;;6.57;5.10;;;;;;;;;;5072435;28;20532;-76
2023/09/16 05:35:58;;;;;;;7.23;5.00;;;;;;;;;;5072348;28;20443;-76
2023/09/16 05:38:25;;;;;;;8.50;6.33;;;;;;;;;;5069816;28;20444;-76
2023/09/16 05:40:52;;;;;;;5.20;4.70;;;;;;;;;;5071897;28;20436;-76
2023/09/16 05:43:20;;;;;;;5.90;4.93;;;;;;;;;;5071353;28;20432;-76
2023/09/16 05:45:52;;;;;;;5.80;4.23;;;;;;;;;;5075244;28;20518;-76
2023/09/16 05:48:20;;;;;;;10.60;4.90;;;;;;;;;;5075245;28;20442;-76
2023/09/16 05:50:56;;;;;;;7.40;4.63;;;;;;;;;;5075709;28;20454;-76
2023/09/16 05:53:23;;;;;;;6.30;4.60;;;;;;;;;;5075207;28;20417;-76
2023/09/16 05:55:50;;;;;;;5.37;4.83;;;;;;;;;;5075115;28;20488;-76
2023/09/16 05:58:18;;;;;;;5.37;4.17;;;;;;;;;;5075540;28;20437;-76
2023/09/16 06:00:45;;;;;;;6.43;4.60;;;;;;;;;;5074996;28;20466;-76
2023/09/16 06:03:13;;;;;;;7.10;4.80;;;;;;;;;;5074621;28;20495;-76
2023/09/16 06:05:41;;;;;;;6.67;5.20;;;;;;;;;;5074937;28;20480;-76
2023/09/16 06:08:09;;;;;;;10.50;4.63;;;;;;;;;;5075123;28;20436;-76
2023/09/16 06:10:37;;;;;;;6.10;4.33;;;;;;;;;;5075111;28;20472;-76
2023/09/16 06:13:04;;;;;;;4.33;3.37;;;;;;;;;;5074929;28;20498;-76
2023/09/16 06:15:31;;;;;;;5.03;4.43;;;;;;;;;;5074827;28;20945;-76
2023/09/16 06:17:59;;;;;;;4.90;4.00;;;;;;;;;;5074945;28;20436;-76
2023/09/16 06:20:27;;;;;;;5.87;4.77;;;;;;;;;;5074859;28;20440;-76
2023/09/16 06:22:57;;;;;;;8.53;4.70;;;;;;;;;;5075059;28;20433;-76
2023/09/16 06:25:25;;;;;;;6.90;4.53;;;;;;;;;;5075229;28;20824;-76
2023/09/16 06:27:52;;;;;;;6.20;4.63;;;;;;;;;;5056514;28;20445;-76
2023/09/16 06:30:20;;;;;;;5.63;4.73;;;;;;;;;;5055426;28;20507;-76
2023/09/16 06:32:47;;;;;;;4.93;4.00;;;;;;;;;;5054928;28;20452;-76
2023/09/16 06:35:14;;;;;;;4.47;4.03;;;;;;;;;;5055622;28;20843;-76
2023/09/16 06:37:43;;;;;;;7.47;5.10;;;;;;;;;;5059006;28;20833;-76
2023/09/16 06:40:11;;;;;;;5.67;4.90;;;;;;;;;;5075502;28;20434;-76
2023/09/16 06:42:41;;;;;;;10.10;4.27;;;;;;;;;;5075007;28;20448;-76
2023/09/16 06:45:09;;;;;;;5.53;4.40;;;;;;;;;;5074832;28;20464;-76
2023/09/16 06:47:36;;;;;;;5.90;5.10;;;;;;;;;;5074992;28;20959;-76
2023/09/16 06:50:06;;;;;;;6.90;5.47;;;;;;;;;;5074888;28;20436;-76
2023/09/16 06:52:37;;;;;;;7.00;4.70;;;;;;;;;;5074749;28;20460;-76
2023/09/16 06:55:06;;;;;;;5.73;4.40;;;;;;;;;;5074644;28;20425;-76
2023/09/16 06:57:33;;;;;;;6.00;4.73;;;;;;;;;;5072305;28;20486;-76
2023/09/16 07:00:05;;;;;;;8.70;5.33;;;;;;;;;;5054808;28;20527;-76
2023/09/16 07:02:33;;;;;;;6.10;4.70;;;;;;;;;;5055029;28;20418;-76
2023/09/16 07:05:00;;;;;;;6.90;4.80;;;;;;;;;;5054724;28;21077;-76
2023/09/16 07:07:27;;;;;;;4.80;4.33;;;;;;;;;;5054538;28;20437;-77
2023/09/16 07:09:55;;;;;;;4.80;3.93;;;;;;;;;;5054433;28;20449;-77
2023/09/16 07:12:24;;;;;;;5.70;3.50;;;;;;;;;;5060687;28;20506;-77
2023/09/16 07:14:52;;;;;;;5.23;4.07;;;;;;;;;;5073738;28;20852;-76
2023/09/16 07:17:19;;;;;;;4.43;3.43;;;;;;;;;;5074352;28;20433;-77
2023/09/16 07:19:46;;;;;;;7.40;3.80;;;;;;;;;;5074543;28;20437;-77
2023/09/16 07:22:14;;;;;;;4.97;3.83;;;;;;;;;;5074580;28;20437;-77
2023/09/16 07:24:41;;;;;;;5.43;3.87;;;;;;;;;;5074196;28;20605;-77
2023/09/16 07:27:08;;;;;;;3.97;3.57;;;;;;;;;;5034574;28;20450;-77
2023/09/16 07:29:37;;;;;;;4.53;3.87;;;;;;;;;;5034366;28;20438;-74
2023/09/16 07:32:04;;;;;;;4.50;3.37;;;;;;;;;;5034152;28;20920;-74
2023/09/16 07:34:32;;;;;;;4.93;3.30;;;;;;;;;;5033964;28;20436;-75
2023/09/16 07:37:01;;;;;;;5.23;3.47;;;;;;;;;;5034317;28;20435;-75
2023/09/16 07:39:30;;;;;;;4.53;3.67;;;;;;;;;;5034956;28;20454;-74
2023/09/16 07:41:58;;;;;;;3.53;3.07;;;;;;;;;;5054194;28;20499;-74
2023/09/16 07:44:26;;;;;;;5.17;3.23;;;;;;;;;;5053704;28;20548;-75
2023/09/16 07:46:55;;;;;;;3.30;2.60;;;;;;;;;;5054162;28;20444;-74
2023/09/16 07:49:22;;;;;;;3.53;2.93;;;;;;;;;;5053703;28;20916;-75
2023/09/16 07:51:49;;;;;;;6.43;3.50;;;;;;;;;;5053549;28;20476;-75
2023/09/16 07:54:17;;;;;;;3.73;2.93;;;;;;;;;;5053191;28;20956;-75
2023/09/16 07:56:44;;;;;;;3.63;3.30;;;;;;;;;;5053894;28;20429;-75
2023/09/16 07:59:11;;;;;;;3.70;3.00;;;;;;;;;;5053198;28;21040;-75
2023/09/16 08:01:38;;;;;;;4.00;3.43;;;;;;;;;;5053401;28;20446;-75
2023/09/16 08:04:07;;;;;;;5.10;3.23;;;;;;;;;;5053332;28;20429;-75
2023/09/16 08:06:39;;;;;;;4.03;3.20;;;;;;;;;;5053123;28;20429;-75
2023/09/16 08:09:06;;;;;;;4.67;2.90;;;;;;;;;;5053456;28;20551;-75
2023/09/16 08:11:33;;;;;;;3.40;2.97;;;;;;;;;;5053796;28;20495;-76
2023/09/16 08:14:01;;;;;;;2.80;2.50;;;;;;;;;;5053542;28;20522;-76
2023/09/16 08:16:30;;;;;;;3.13;2.83;;;;;;;;;;5053031;28;20935;-75
2023/09/16 08:18:57;;;;;;;3.50;2.87;;;;;;;;;;5053180;28;20460;-75
2023/09/16 08:21:26;;;;;;;4.50;2.93;;;;;;;;;;5053181;28;20449;-75
2023/09/16 08:23:54;;;;;;;4.03;2.80;;;;;;;;;;5053365;28;20473;-76
2023/09/16 08:26:26;;;;;;;3.80;2.80;;;;;;;;;;5052980;28;20970;-75
2023/09/16 08:28:53;;;;;;;3.80;3.40;;;;;;;;;;5053044;28;20417;-76
2023/09/16 08:31:21;;;;;;;3.73;2.97;;;;;;;;;;5051421;28;20461;-87
2023/09/16 08:33:50;;;;;;;4.53;2.80;;;;;;;;;;5052868;28;20441;-80
2023/09/16 08:36:18;;;;;;;3.73;3.33;;;;;;;;;;5052157;28;21012;-80
2023/09/16 08:38:46;;;;;;;3.50;2.83;;;;;;;;;;5052840;28;20429;-82
2023/09/16 08:41:21;;;;;;;4.70;2.50;;;;;;;;;;5052296;28;20469;-80
2023/09/16 08:43:49;;;;;;;9.30;2.87;;;;;;;;;;5052291;28;20424;-80
2023/09/16 08:46:17;;;;;;;5.37;2.90;;;;;;;;;;5058604;28;20498;-80
2023/09/16 08:48:47;;;;;;;5.30;4.80;;;;;;;;;;5072652;28;20483;-80
2023/09/16 08:51:16;;;;;;;3.43;3.00;;;;;;;;;;5072097;28;20436;-80
2023/09/16 08:53:44;;;;;;;3.40;3.00;;;;;;;;;;5072616;28;20849;-80
2023/09/16 08:56:14;;;;;;;3.20;2.90;;;;;;;;;;5072481;28;20476;-80
2023/09/16 08:58:42;;;;;;;3.77;3.17;;;;;;;;;;5071825;28;20468;-79
2023/09/16 09:01:15;;;;;;;3.90;3.30;;;;;;;;;;5070442;28;20479;-80
2023/09/16 09:03:45;;;;;;;3.73;2.80;;;;;;;;;;5058673;28;20425;-80
2023/09/16 09:06:14;;;;;;;3.07;2.70;;;;;;;;;;5051467;28;20467;-80
2023/09/16 09:08:41;;;;;;;3.40;2.83;;;;;;;;;;5051202;28;20433;-80
2023/09/16 09:11:12;;;;;;;2.93;2.50;;;;;;;;;;5051684;28;21124;-81
2023/09/16 09:13:42;;;;;;;3.13;2.83;;;;;;;;;;5051415;28;20443;-81
2023/09/16 09:16:10;;;;;;;3.20;2.30;;;;;;;;;;5051425;28;20451;-80
2023/09/16 09:18:39;;;;;;;2.97;2.60;;;;;;;;;;5051571;28;20498;-81
2023/09/16 09:21:07;;;;;;;2.90;2.60;;;;;;;;;;5054812;28;20930;-81
2023/09/16 09:23:34;;;;;;;3.50;2.47;;;;;;;;;;5053632;28;20915;-81
2023/09/16 09:26:01;;;;;;;3.80;3.20;;;;;;;;;;5034383;28;20429;-80
2023/09/16 09:28:29;;;;;;;12.97;4.77;;;;;;;;;;5048886;28;20502;-80
2023/09/16 09:30:59;;;;;;;2.97;2.60;;;;;;;;;;5074805;28;20474;-81
2023/09/16 09:33:27;;;;;;;3.20;2.90;;;;;;;;;;5072796;28;20464;-81
2023/09/16 09:36:10;;;;;;;2.90;2.53;;;;;;;;;;5055597;28;20471;-80
2023/09/16 09:38:39;;;;;;;3.73;2.87;;;;;;;;;;5054144;28;20471;-81
2023/09/16 09:41:06;;;;;;;2.93;2.23;;;;;;;;;;5054892;28;20411;-81
2023/09/16 09:43:34;;;;;;;3.53;2.60;;;;;;;;;;5056424;28;20494;-81
2023/09/16 09:46:03;;;;;;;5.27;2.40;;;;;;;;;;5074021;28;20411;-81
2023/09/16 09:48:31;;;;;;;3.50;2.47;;;;;;;;;;5074925;28;20518;-81
2023/09/16 09:50:58;;;;;;;3.10;2.60;;;;;;;;;;5074472;28;20818;-81
2023/09/16 09:53:26;;;;;;;2.60;2.30;;;;;;;;;;5074778;28;20740;-81
2023/09/16 09:55:54;;;;;;;3.73;3.40;;;;;;;;;;5072383;28;20544;-81
2023/09/16 09:58:21;;;;;;;3.20;2.77;;;;;;;;;;5074300;28;20901;-81
2023/09/16 10:00:49;;;;;;;3.37;3.07;;;;;;;;;;5035901;28;1124136;-81
2023/09/16 10:03:24;;;;;;;3.30;2.67;;;;;;;;;;5069998;28;20592;-81
2023/09/16 10:05:51;;;;;;;3.65;3.10;;;;;;;;;;5055581;28;20424;-81
2023/09/16 10:08:19;;;;;;;3.45;2.60;;;;;;;;;;5057476;28;20216;-81
2023/09/16 10:10:48;;;;;;;4.63;2.80;;;;;;;;;;5055685;28;20729;-81
2023/09/16 10:13:16;;;;;;;4.47;2.90;;;;;;;;;;5055185;28;20186;-80
2023/09/16 10:15:44;;;;;;;3.10;2.35;;;;;;;;;;5055210;28;20240;-81
2023/09/16 10:18:12;;;;;;;3.08;2.40;;;;;;;;;;5054986;28;20194;-81
2023/09/16 10:20:41;;;;;;;3.00;2.70;;;;;;;;;;5055323;28;20437;-81
2023/09/16 10:23:09;;;;;;;3.33;2.60;;;;;;;;;;5055324;28;20194;-81
2023/09/16 10:25:36;;;;;;;3.35;3.05;;;;;;;;;;5055291;28;20194;-81
2023/09/16 10:28:06;;;;;;;8.43;2.95;;;;;;;;;;5055288;28;20182;-81
2023/09/16 10:30:34;;;;;;;3.47;2.90;;;;;;;;;;5052124;28;20239;-82
2023/09/16 10:33:05;;;;;;;2.80;2.58;;;;;;;;;;5050750;28;20217;-81
2023/09/16 10:35:34;;;;;;;3.10;2.80;;;;;;;;;;5054793;28;20214;-82
2023/09/16 10:38:07;;;;;;;4.13;3.40;;;;;;;;;;5054820;28;20200;-81
2023/09/16 10:40:35;;;;;;;3.45;3.15;;;;;;;;;;5060317;28;20234;-82
2023/09/16 10:43:04;;;;;;;3.58;2.90;;;;;;;;;;5074283;28;20209;-80
2023/09/16 10:45:32;;;;;;;2.97;2.67;;;;;;;;;;5064391;28;20230;-82
2023/09/16 10:48:01;;;;;;;2.80;2.22;;;;;;;;;;5054199;28;20255;-82
2023/09/16 10:50:35;;;;;;;3.08;2.78;;;;;;;;;;5068518;28;20259;-82
2023/09/16 10:53:06;;;;;;;4.13;3.25;;;;;;;;;;5049684;28;20192;-82
2023/09/16 10:55:37;;;;;;;2.80;2.50;;;;;;;;;;5054177;28;20762;-82
2023/09/16 10:58:09;;;;;;;3.20;2.58;;;;;;;;;;5053760;28;20239;-81
2023/09/16 11:00:39;;;;;;;3.55;3.25;;;;;;;;;;5054000;28;20218;-82
2023/09/16 11:03:07;;;;;;;3.17;2.78;;;;;;;;;;5054823;28;20216;-82
2023/09/16 11:05:34;;;;;;;4.22;2.97;;;;;;;;;;5053506;28;20244;-81
2023/09/16 11:08:02;;;;;;;2.72;2.42;;;;;;;;;;5053791;28;20186;-82
2023/09/16 11:10:31;;;;;;;2.83;2.47;;;;;;;;;;5053567;28;20190;-82
2023/09/16 11:12:59;;;;;;;3.15;2.85;;;;;;;;;;5043637;28;20240;-82
2023/09/16 11:15:32;;;;;;;3.05;2.75;;;;;;;;;;5052677;28;20267;-82
2023/09/16 11:18:03;;;;;;;3.08;2.78;;;;;;;;;;5053735;28;20319;-82
2023/09/16 11:20:33;;;;;;;3.83;3.03;;;;;;;;;;5052359;28;20195;-82
2023/09/16 11:23:05;;;;;;;3.60;2.67;;;;;;;;;;5053963;28;20424;-82
2023/09/16 11:25:36;;;;;;;2.80;2.60;;;;;;;;;;5056558;28;20596;-82
2023/09/16 11:28:07;;;;;;;3.20;2.90;;;;;;;;;;5052542;28;20201;-81
2023/09/16 11:30:34;;;;;;;4.00;3.00;;;;;;;;;;5052764;28;20232;-82
2023/09/16 11:33:25;;;;;;;3.47;3.17;;;;;;;;;;5052856;28;20437;-82
2023/09/16 11:36:16;;;;;;;2.95;2.47;;;;;;;;;;5053197;28;20676;-82
2023/09/16 11:38:59;;;;;;;3.40;2.60;;;;;;;;;;5053619;28;20324;-82
2023/09/16 11:41:28;;;;;;;2.83;2.53;;;;;;;;;;5052288;28;20984;-83
2023/09/16 11:43:55;;;;;;;2.70;2.30;;;;;;;;;;5052659;28;21056;-82
2023/09/16 11:46:31;;;;;;;3.03;2.40;;;;;;;;;;5063165;28;20212;-83
2023/09/16 11:49:00;;;;;;;3.07;2.60;;;;;;;;;;5057658;28;20592;-82
2023/09/16 11:51:27;;;;;;;2.73;2.40;;;;;;;;;;5053196;28;20471;-81
2023/09/16 11:53:55;;;;;;;2.60;2.40;;;;;;;;;;5054604;28;20444;-82
2023/09/16 11:56:23;;;;;;;3.37;2.40;;;;;;;;;;5053091;28;20546;-82
2023/09/16 11:58:54;;;;;;;3.30;2.70;;;;;;;;;;5052443;28;20441;-82
2023/09/16 12:01:23;;;;;;;2.90;2.40;;;;;;;;;;5064634;28;20464;-82
2023/09/16 12:03:52;;;;;;;2.97;2.67;;;;;;;;;;5073030;28;20477;-82
2023/09/16 12:06:21;;;;;;;2.93;2.50;;;;;;;;;;5064282;28;20777;-82
2023/09/16 12:08:49;;;;;;;2.83;2.53;;;;;;;;;;5053223;28;20433;-82
2023/09/16 12:11:19;;;;;;;4.63;2.10;;;;;;;;;;5060351;28;20482;-82
2023/09/16 12:13:46;;;;;;;2.40;1.80;;;;;;;;;;5072439;28;20934;-81
2023/09/16 12:16:15;;;;;;;2.80;2.20;;;;;;;;;;5072702;28;20553;-81
2023/09/16 12:18:43;;;;;;;2.30;1.77;;;;;;;;;;5056882;28;20437;-82
2023/09/16 12:21:10;;;;;;;2.80;2.20;;;;;;;;;;5052903;28;20519;-82
2023/09/16 12:23:42;;;;;;;2.57;2.23;;;;;;;;;;5052968;28;20515;-83
2023/09/16 12:26:10;;;;;;;2.70;2.10;;;;;;;;;;5053132;28;20777;-83
2023/09/16 12:28:39;;;;;;;3.73;2.53;;;;;;;;;;5052822;28;20506;-82
2023/09/16 12:31:09;;;;;;;3.20;1.93;;;;;;;;;;5052925;28;20437;-82
2023/09/16 12:33:43;;;;;;;2.77;2.20;;;;;;;;;;5053309;28;20504;-83
2023/09/16 12:36:11;;;;;;;2.73;1.90;;;;;;;;;;5052805;28;20461;-83
2023/09/16 12:38:39;;;;;;;2.77;1.97;;;;;;;;;;5052970;28;20441;-83
2023/09/16 12:41:08;;;;;;;3.07;2.20;;;;;;;;;;5052740;28;20445;-82
2023/09/16 12:43:36;;;;;;;2.43;1.97;;;;;;;;;;5052611;28;20492;-82
2023/09/16 12:46:05;;;;;;;3.13;2.10;;;;;;;;;;5052778;28;20448;-83
2023/09/16 12:48:32;;;;;;;2.93;2.43;;;;;;;;;;5052394;28;20456;-83
2023/09/16 12:51:02;;;;;;;5.23;2.00;;;;;;;;;;5052464;28;20429;-83
2023/09/16 12:53:30;;;;;;;3.47;2.43;;;;;;;;;;5051845;28;20520;-83
2023/09/16 12:55:57;;;;;;;2.87;2.13;;;;;;;;;;5052492;28;20473;-82
2023/09/16 12:58:25;;;;;;;3.23;2.33;;;;;;;;;;5049501;28;20435;-82
2023/09/16 13:00:52;;;;;;;3.00;2.20;;;;;;;;;;5052079;28;20995;-81
2023/09/16 13:03:19;;;;;;;2.93;2.33;;;;;;;;;;5052568;28;20523;-76
2023/09/16 13:05:50;;;;;;;3.90;2.33;;;;;;;;;;5052543;28;20465;-75
2023/09/16 13:08:21;;;;;;;3.70;2.40;;;;;;;;;;5052560;28;20528;-75
2023/09/16 13:10:50;;;;;;;3.37;1.90;;;25.80;55.40;;;;;;5052578;28;20424;-75
2023/09/16 13:13:18;;;;;;;3.53;1.77;;;47.90;11.20;;;;;;5052735;28;20487;-75
2023/09/16 13:15:47;;;;;;;3.07;1.63;;;45.00;13.70;;;;;;5052379;28;20433;-74
2023/09/16 13:18:14;;;;;;;2.40;1.50;;;42.90;15.40;;;;;;5052321;28;20429;-74
2023/09/16 13:20:42;;;;;;;2.70;1.60;;;41.10;15.80;;;;;;5052097;28;20472;-74
2023/09/16 13:23:24;;;;;;;3.20;1.70;;;39.60;16.60;;;;;;5052282;28;20752;-74
2023/09/16 13:25:52;;;;;;;5.13;1.63;;;38.40;18.00;;;;;;5051712;28;20429;-74
2023/09/16 13:28:21;;;;;;;3.40;1.80;;;37.40;19.90;;;;;;5052112;28;20431;-73
2023/09/16 13:30:49;;;;;;;2.87;1.93;;;36.70;22.10;;;;;;5051711;28;20543;-74
2023/09/16 13:33:17;;;;;;;3.10;1.97;;;36.00;22.00;;;;;;5051912;28;20829;-74
2023/09/16 13:35:45;;;;;;;3.10;2.20;;;35.50;23.20;;;;;;5052313;28;20439;-74
2023/09/16 13:38:14;;;;;;;3.10;2.00;;;35.00;24.10;;;;;;5050951;28;20807;-74
2023/09/16 13:40:49;;;;;;;3.37;1.87;;;34.60;25.00;;;;;;5051817;28;20529;-74
2023/09/16 13:43:18;;;;;;;3.97;1.90;;;34.20;25.20;;;;;;5056306;28;20444;-74
2023/09/16 13:45:45;;;;;;;3.00;1.83;;;33.90;25.80;;;;;;5056561;28;20558;-74
2023/09/16 13:48:18;;;;;;;3.10;2.10;;;33.60;26.20;;;;;;5059727;28;20492;-74
2023/09/16 13:50:47;;;;;;;3.47;2.17;;;33.40;26.80;;;;;;5064238;28;20879;-74
2023/09/16 13:53:15;;;;;;;3.67;2.43;;;33.20;26.70;;;;;;5055771;28;20468;-74
2023/09/16 13:55:43;;;;;;;3.53;2.47;;;33.00;27.60;;;;;;5068044;28;20472;-74
2023/09/16 13:58:12;;;;;;;3.67;2.13;;;32.80;27.70;;;;;;5051304;28;20480;-74
2023/09/16 14:00:39;;;;;;;5.00;2.50;;;32.60;28.20;;;;;;5051020;28;20473;-75
2023/09/16 14:03:07;;;;;;;6.40;2.30;;;32.50;29.10;;;;;;5054558;28;20484;-77
2023/09/16 14:05:35;;;;;;;3.30;2.30;;;32.40;29.20;;;;;;5052650;28;20927;-77
2023/09/16 14:08:02;;;;;;;3.33;2.40;;;32.30;27.80;;;;;;5054005;28;20448;-77
2023/09/16 14:10:33;;;;;;;3.50;2.03;;;32.10;28.20;;;;;;5056612;28;20464;-77
2023/09/16 14:13:06;;;;;;;3.40;1.97;;;32.00;28.60;;;;;;5054840;28;20417;-74
2023/09/16 14:15:35;;;;;;;3.30;2.10;;;31.80;29.20;;;;;;5059944;28;20497;-74
2023/09/16 14:18:03;;;;;;;4.30;2.47;;;31.80;29.90;;;;;;5067017;28;20846;-74
2023/09/16 14:20:30;;;;;;;3.53;2.27;;;31.70;30.40;;;;;;5053974;28;20445;-74
2023/09/16 14:23:03;;;;;;;3.30;2.30;;;31.60;29.70;;;;;;5071149;28;20834;-74
2023/09/16 14:25:32;;;;;;;3.20;2.00;;;31.50;30.60;;;;;;5058938;28;20441;-74
2023/09/16 14:28:00;;;;;;;3.70;2.60;;;31.30;30.60;;;;;;5057591;28;20449;-74
2023/09/16 14:30:27;;;;;;;3.37;1.80;;;31.10;30.70;;;;;;5063613;28;20452;-73
2023/09/16 14:32:56;;;;;;;5.50;2.37;;;30.90;30.40;;;;;;5057037;28;20441;-74
2023/09/16 14:35:23;;;;;;;5.67;2.90;;;30.70;30.00;;;;;;5054597;28;20430;-74